Time;durP1;ratioP1;P1;durP2;ratioP2;P2;SDS_P1;SDS_P2;PMS_P1;PMS_P2;Temp;Humidity;BMP_temperature;BMP_pressure;BME280_temperature;BME280_humidity;BME280_pressure;Samples;Min_cycle;Max_cycle;Signal;HPM_P1;HPM_P2
2021/09/18 00:02:00;;;;;;;4.10;2.72;;;;;;;;;;8276450;28;20456;-76
2021/09/18 00:06:04;;;;;;;5.68;2.15;;;;;;;;;;8281548;28;20045;-76
2021/09/18 00:10:08;;;;;;;3.78;1.80;;;;;;;;;;8275379;28;20464;-74
2021/09/18 00:14:14;;;;;;;4.10;1.80;;;;;;;;;;8276525;28;20613;-75
2021/09/18 00:18:19;;;;;;;2.45;1.33;;;;;;;;;;8257753;28;20360;-76
2021/09/18 00:22:23;;;;;;;1.77;1.50;;;;;;;;;;8241361;28;20059;-74
2021/09/18 00:26:26;;;;;;;3.28;1.58;;;;;;;;;;8274823;28;20045;-75
2021/09/18 00:30:47;;;;;;;1.80;1.15;;;;;;;;;;8275327;28;20464;-76
2021/09/18 00:34:52;;;;;;;3.60;1.67;;;;;;;;;;8274903;28;20376;-76
2021/09/18 00:38:58;;;;;;;6.53;1.20;;;;;;;;;;8257510;28;20067;-76
2021/09/18 00:43:02;;;;;;;2.60;1.20;;;;;;;;;;8274765;28;20514;-75
2021/09/18 00:47:06;;;;;;;4.85;1.58;;;;;;;;;;8274599;28;20071;-74
2021/09/18 00:51:11;;;;;;;1.38;1.20;;;;;;;;;;8258548;28;20465;-73
2021/09/18 00:55:17;;;;;;;6.15;1.95;;;;;;;;;;8273564;28;20348;-75
2021/09/18 00:59:23;;;;;;;2.53;1.90;;;;;;;;;;8273002;28;20376;-73
2021/09/18 01:03:29;;;;;;;;;;;;;;;;;;8275014;28;20041;-76
2021/09/18 01:07:33;;;;;;;3.72;1.75;;;;;;;;;;8278791;28;20315;-74
2021/09/18 01:11:38;;;;;;;4.97;1.13;;;;;;;;;;8273976;28;20376;-75
2021/09/18 01:15:44;;;;;;;0.77;0.70;;;;;;;;;;8291417;28;20084;-76
2021/09/18 01:19:48;;;;;;;1.17;0.80;;;;;;;;;;8293361;28;20094;-76
2021/09/18 01:23:54;;;;;;;0.35;0.35;;;;;;;;;;8291180;28;20352;-76
2021/09/18 01:27:58;;;;;;;1.02;0.43;;;;;;;;;;8247293;28;20406;-76
2021/09/18 01:32:03;;;;;;;0.50;0.38;;;;;;;;;;8288614;28;20447;-75
2021/09/18 01:36:07;;;;;;;1.60;0.47;;;;;;;;;;8280304;28;20352;-75
2021/09/18 01:40:12;;;;;;;0.55;0.52;;;;;;;;;;8290216;28;20393;-76
2021/09/18 01:44:18;;;;;;;0.68;0.43;;;;;;;;;;8288963;28;20380;-77
2021/09/18 01:48:23;;;;;;;0.50;0.40;;;;;;;;;;8289872;28;20401;-75
2021/09/18 01:52:33;;;;;;;0.30;0.30;;;;;;;;;;8289872;28;20485;-77
2021/09/18 01:56:39;;;;;;;0.32;0.32;;;;;;;;;;8291034;28;20444;-76
2021/09/18 02:00:51;;;;;;;0.45;0.38;;;;;;;;;;8289865;28;20044;-76
2021/09/18 02:04:57;;;;;;;0.30;0.30;;;;;;;;;;8290222;28;20060;-76
2021/09/18 02:09:03;;;;;;;1.65;0.85;;;;;;;;;;8290325;28;20056;-75
2021/09/18 02:13:11;;;;;;;0.70;0.43;;;;;;;;;;8290580;28;20067;-75
2021/09/18 02:17:15;;;;;;;0.28;0.28;;;;;;;;;;8290067;28;20045;-76
2021/09/18 02:21:21;;;;;;;1.05;0.50;;;;;;;;;;8291547;28;20471;-75
2021/09/18 02:25:30;;;;;;;0.75;0.40;;;;;;;;;;8290417;28;20456;-75
2021/09/18 02:29:34;;;;;;;1.27;0.50;;;;;;;;;;8288255;28;20090;-75
2021/09/18 02:33:38;;;;;;;0.52;0.38;;;;;;;;;;8289110;28;20459;-76
2021/09/18 02:37:43;;;;;;;0.50;0.50;;;;;;;;;;8287405;28;20086;-75
2021/09/18 02:41:48;;;;;;;3.00;0.52;;;;;;;;;;8287919;28;20052;-76
2021/09/18 02:45:53;;;;;;;1.27;0.50;;;;;;;;;;8287438;28;20071;-75
2021/09/18 02:49:58;;;;;;;0.80;0.80;;;;;;;;;;8290568;28;20527;-76
2021/09/18 02:54:03;;;;;;;0.60;0.45;;;;;;;;;;8290062;28;20471;-76
2021/09/18 02:58:11;;;;;;;1.52;0.70;;;;;;;;;;8271710;28;20348;-77
2021/09/18 03:02:17;;;;;;;0.80;0.63;;;;;;;;;;8290049;28;20036;-77
2021/09/18 03:06:23;;;;;;;2.38;0.80;;;;;;;;;;8290003;28;20045;-76
2021/09/18 03:10:28;;;;;;;0.85;0.85;;;;;;;;;;8286738;28;20492;-77
2021/09/18 03:14:33;;;;;;;3.00;0.95;;;;;;;;;;8289829;28;20482;-76
2021/09/18 03:18:38;;;;;;;2.40;0.90;;;;;;;;;;8290050;28;20494;-76
2021/09/18 03:22:43;;;;;;;0.85;0.85;;;;;;;;;;8290933;28;20479;-77
2021/09/18 03:26:49;;;;;;;0.90;0.80;;;;;;;;;;8289699;28;20060;-76
2021/09/18 03:30:54;;;;;;;1.15;1.02;;;;;;;;;;8272458;28;20472;-76
2021/09/18 03:34:57;;;;;;;1.70;1.38;;;;;;;;;;8289057;28;20468;-77
2021/09/18 03:39:04;;;;;;;2.67;1.58;;;;;;;;;;8290539;28;20054;-77
2021/09/18 03:43:09;;;;;;;1.25;1.15;;;;;;;;;;8294664;28;20052;-76
2021/09/18 03:47:14;;;;;;;2.80;1.50;;;;;;;;;;8297531;28;20525;-76
2021/09/18 03:51:19;;;;;;;2.58;1.70;;;;;;;;;;8276906;28;20045;-76
2021/09/18 03:55:25;;;;;;;1.92;1.42;;;;;;;;;;8292502;28;20057;-77
2021/09/18 03:59:30;;;;;;;2.00;1.80;;;;;;;;;;8294584;28;20374;-77
2021/09/18 04:03:36;;;;;;;2.60;1.70;;;;;;;;;;8293198;28;20056;-77
2021/09/18 04:07:41;;;;;;;2.40;1.90;;;;;;;;;;8292198;28;20063;-77
2021/09/18 04:11:46;;;;;;;3.13;2.22;;;;;;;;;;8294569;28;20481;-76
2021/09/18 04:15:52;;;;;;;3.03;2.08;;;;;;;;;;8292218;28;20367;-77
2021/09/18 04:19:57;;;;;;;2.65;1.98;;;;;;;;;;8292486;28;20380;-76
2021/09/18 04:24:04;;;;;;;2.45;2.20;;;;;;;;;;8294348;28;20087;-77
2021/09/18 04:28:08;;;;;;;3.38;2.80;;;;;;;;;;8295019;28;20064;-76
2021/09/18 04:32:13;;;;;;;2.88;2.30;;;;;;;;;;8292497;28;20510;-77
2021/09/18 04:36:19;;;;;;;5.63;2.53;;;;;;;;;;8293320;28;20368;-77
2021/09/18 04:40:24;;;;;;;3.03;2.65;;;;;;;;;;8289910;28;20452;-77
2021/09/18 04:44:28;;;;;;;4.18;2.42;;;;;;;;;;8293014;28;20122;-77
2021/09/18 04:48:34;;;;;;;4.75;2.75;;;;;;;;;;8293424;28;20368;-77
2021/09/18 04:52:39;;;;;;;3.20;2.22;;;;;;;;;;8293091;28;20494;-77
2021/09/18 04:56:43;;;;;;;2.38;2.08;;;;;;;;;;8291991;28;20364;-76
2021/09/18 05:00:48;;;;;;;3.42;2.40;;;;;;;;;;8291248;28;20118;-76
2021/09/18 05:04:53;;;;;;;5.28;2.10;;;;;;;;;;8292298;28;20052;-76
2021/09/18 05:08:59;;;;;;;1.75;1.65;;;;;;;;;;8292775;28;20490;-76
2021/09/18 05:13:04;;;;;;;2.42;1.90;;;;;;;;;;8291971;28;20037;-77
2021/09/18 05:17:10;;;;;;;2.75;2.20;;;;;;;;;;8291507;28;20044;-76
2021/09/18 05:21:16;;;;;;;3.13;2.10;;;;;;;;;;8290091;28;20503;-76
2021/09/18 05:25:21;;;;;;;5.70;2.30;;;;;;;;;;8293463;28;20458;-76
2021/09/18 05:29:26;;;;;;;2.50;1.80;;;;;;;;;;8292572;28;20348;-76
2021/09/18 05:33:30;;;;;;;3.08;2.22;;;;;;;;;;8288730;28;20399;-77
2021/09/18 05:37:35;;;;;;;2.95;2.40;;;;;;;;;;8291582;28;20356;-76
2021/09/18 05:41:41;;;;;;;3.65;2.70;;;;;;;;;;8289152;28;20074;-76
2021/09/18 05:45:47;;;;;;;3.53;2.80;;;;;;;;;;8292236;28;20359;-77
2021/09/18 05:49:52;;;;;;;4.72;2.72;;;;;;;;;;8291338;28;20510;-76
2021/09/18 05:53:57;;;;;;;4.72;2.67;;;;;;;;;;8289210;28;20379;-76
2021/09/18 05:58:03;;;;;;;3.08;2.53;;;;;;;;;;8289993;28;20482;-76
2021/09/18 06:02:08;;;;;;;4.47;2.83;;;;;;;;;;8289684;28;20510;-76
2021/09/18 06:06:14;;;;;;;2.90;2.60;;;;;;;;;;8291904;28;20483;-76
2021/09/18 06:10:19;;;;;;;3.10;2.65;;;;;;;;;;8290317;28;20044;-76
2021/09/18 06:14:24;;;;;;;5.40;2.97;;;;;;;;;;8289713;28;20478;-77
2021/09/18 06:18:28;;;;;;;3.67;2.95;;;;;;;;;;8289823;28;20049;-76
2021/09/18 06:22:34;;;;;;;3.38;2.70;;;;;;;;;;8289671;28;20480;-76
2021/09/18 06:26:39;;;;;;;4.47;2.92;;;;;;;;;;8289599;28;20497;-76
2021/09/18 06:30:44;;;;;;;6.78;3.85;;;;;;;;;;8287838;28;20391;-77
2021/09/18 06:34:50;;;;;;;6.05;3.10;;;;;;;;;;8290876;28;20048;-77
2021/09/18 06:38:55;;;;;;;3.40;2.60;;;;;;;;;;8289569;28;20044;-76
2021/09/18 06:43:00;;;;;;;3.72;2.88;;;;;;;;;;8289256;28;20056;-76
2021/09/18 06:47:06;;;;;;;4.70;2.75;;;;;;;;;;8290158;28;20525;-76
2021/09/18 06:51:11;;;;;;;4.50;2.65;;;;;;;;;;8289250;28;20071;-76
2021/09/18 06:55:16;;;;;;;2.50;2.30;;;;;;;;;;8290150;28;20473;-76
2021/09/18 06:59:22;;;;;;;2.95;2.65;;;;;;;;;;8289057;28;20399;-76
2021/09/18 07:03:27;;;;;;;3.47;1.95;;;;;;;;;;8290179;28;20044;-76
2021/09/18 07:07:32;;;;;;;3.25;2.40;;;;;;;;;;8291846;28;20488;-76
2021/09/18 07:11:38;;;;;;;1.67;1.52;;;;;;;;;;8291268;28;20057;-75
2021/09/18 07:15:43;;;;;;;4.78;1.98;;;;;;;;;;8294516;28;20126;-76
2021/09/18 07:19:49;;;;;;;3.75;2.10;;;;;;;;;;8294180;28;20348;-76
2021/09/18 07:23:53;;;;;;;2.38;2.10;;;;;;;;;;8294015;28;20044;-76
2021/09/18 07:27:58;;;;;;;2.50;2.13;;;;;;;;;;8295249;28;20385;-76
2021/09/18 07:32:04;;;;;;;3.72;2.65;;;;;;;;;;8295261;28;20489;-76
2021/09/18 07:36:09;;;;;;;3.72;2.38;;;;;;;;;;8291431;28;20479;-76
2021/09/18 07:40:15;;;;;;;3.78;2.05;;;;;;;;;;8295775;28;20487;-76
2021/09/18 07:44:19;;;;;;;2.65;2.30;;;;;;;;;;8293767;28;20392;-75
2021/09/18 07:48:24;;;;;;;3.53;1.92;;;;;;;;;;8293282;28;20356;-75
2021/09/18 07:52:30;;;;;;;2.30;1.85;;;;;;;;;;8293534;28;20471;-75
2021/09/18 07:56:36;;;;;;;1.45;1.35;;;;;;;;;;8294356;28;20352;-75
2021/09/18 08:00:41;;;;;;;4.10;2.35;;;;;;;;;;8296121;28;20578;-76
2021/09/18 08:04:47;;;;;;;5.22;3.42;;;;;;;;;;8293717;28;20478;-74
2021/09/18 08:08:53;;;;;;;7.57;3.40;;;;;;;;;;8293271;28;20345;-76
2021/09/18 08:12:58;;;;;;;4.50;1.77;;;;;;;;;;8293452;28;20059;-75
2021/09/18 08:17:04;;;;;;;4.65;2.22;;;;;;;;;;8292365;28;20041;-74
2021/09/18 08:21:11;;;;;;;6.72;2.30;;;;;;;;;;8292395;28;20475;-75
2021/09/18 08:25:17;;;;;;;13.85;5.03;;;;;;;;;;8292530;28;20386;-76
2021/09/18 08:29:21;;;;;;;12.43;2.50;;;;;;;;;;8293420;28;20387;-76
2021/09/18 08:33:27;;;;;;;4.13;1.65;;;;;;;;;;8294893;28;20498;-77
2021/09/18 08:37:31;;;;;;;3.60;1.80;;;;;;;;;;8293159;28;20128;-77
2021/09/18 08:41:37;;;;;;;2.40;1.45;;;;;;;;;;8291845;28;20345;-76
2021/09/18 08:45:42;;;;;;;1.33;1.13;;;;;;;;;;8293169;28;20494;-74
2021/09/18 08:49:48;;;;;;;2.20;1.27;;;;;;;;;;8292177;28;20483;-73
2021/09/18 08:53:55;;;;;;;1.92;1.38;;;;;;;;;;8274789;28;20376;-74
2021/09/18 08:58:01;;;;;;;2.17;1.40;;;;;;;;;;8292701;28;20443;-76
2021/09/18 09:02:13;;;;;;;3.10;1.77;;;;;;;;;;8274048;28;20363;-75
2021/09/18 09:06:19;;;;;;;4.57;2.63;;;;;;;;;;8289947;28;20379;-75
2021/09/18 09:10:28;;;;;;;3.58;2.33;;;;;;;;;;8289920;28;20356;-76
2021/09/18 09:14:44;;;;;;;2.20;1.52;;;;;;;;;;8256265;28;20380;-74
2021/09/18 09:18:50;;;;;;;;;;;;;;;;;;8257097;28;20072;-76
2021/09/18 09:22:55;;;;;;;3.38;1.70;;;;;;;;;;8259006;28;20267;-75
2021/09/18 09:27:14;;;;;;;3.70;1.95;;;;;;;;;;8271893;28;20371;-75
2021/09/18 09:31:26;;;;;;;3.67;1.63;;;;;;;;;;8291620;28;20349;-75
2021/09/18 09:35:30;;;;;;;5.65;2.30;;;;;;;;;;8290696;28;20044;-75
2021/09/18 09:39:35;;;;;;;3.88;1.88;;;;;;;;;;8292911;28;20368;-74
2021/09/18 09:43:45;;;;;;;5.25;2.00;;;;;;;;;;8287577;28;20410;-74
2021/09/18 09:48:07;;;;;;;3.75;2.15;;;;;;;;;;8272938;28;20336;-73
2021/09/18 09:52:35;;;;;;;3.13;1.75;;;;;;;;;;8290890;28;20379;-74
2021/09/18 09:56:40;;;;;;;19.42;6.22;;;;;;;;;;8289075;28;20062;-74
2021/09/18 10:00:51;;;;;;;6.05;2.95;;;;;;;;;;8288750;28;20476;-73
2021/09/18 10:04:56;;;;;;;40.30;11.90;;;;;;;;;;8287360;28;20447;-76
2021/09/18 10:09:01;;;;;;;11.15;3.67;;;;;;;;;;8287256;28;20505;-75
2021/09/18 10:13:07;;;;;;;5.22;2.78;;;;;;;;;;8289567;28;20346;-75
2021/09/18 10:17:13;;;;;;;6.38;2.78;;;;;;;;;;8288064;28;20498;-74
2021/09/18 10:25:59;;;;;;;2.17;1.45;;;;;;;;;;8288072;28;20048;-74
2021/09/18 10:30:03;;;;;;;34.50;16.15;;;;;;;;;;8279746;28;20368;-73
2021/09/18 10:34:23;;;;;;;7.60;3.83;;;;;;;;;;8257048;28;20372;-75
2021/09/18 10:38:32;;;;;;;7.03;2.20;;;;;;;;;;8282572;28;20360;-74
2021/09/18 10:42:41;;;;;;;7.70;3.38;;;;;;;;;;8289218;28;20506;-74
2021/09/18 10:47:01;;;;;;;11.30;2.42;;;;;;;;;;8290131;28;20468;-72
2021/09/18 10:51:34;;;;;;;3.08;1.52;;;;;;;;;;8297621;28;20360;-74
2021/09/18 10:55:59;;;;;;;11.82;3.25;;;;;;;;;;8366172;27;20580;-75
2021/09/18 11:00:20;;;;;;;9.25;3.10;;;;;;;;;;8402910;27;20553;-75
2021/09/18 11:04:38;;;;;;;5.88;2.67;;;;;;;;;;8368953;27;20791;-74
2021/09/18 11:08:54;;;;;;;3.28;1.60;;;;;;;;;;8421498;27;20844;-74
2021/09/18 11:13:10;;;;;;;5.47;1.70;;;;;;;;;;8419240;27;20953;-74
2021/09/18 11:17:37;;;;;;;1.73;1.20;;;;;;;;;;8352285;27;1262786;-75
2021/09/18 11:21:54;;;;;;;7.32;2.63;;;;;;;;;;8414144;27;21020;-73
2021/09/18 11:26:39;;;;;;;2.50;1.50;;;;;;;;;;8392143;27;20842;-74
2021/09/18 11:30:56;;;;;;;3.40;1.80;;;;;;;;;;8413535;27;20833;-74
2021/09/18 11:35:19;;;;;;;4.20;1.88;;;;;;;;;;8410189;27;21058;-73
2021/09/18 11:40:17;;;;;;;5.38;2.15;;;;;;;;;;8402258;27;21108;-75
2021/09/18 11:44:34;;;;;;;3.85;2.08;;;;;;;;;;8397193;27;21130;-75
2021/09/18 11:49:02;;;;;;;5.10;2.55;;;;;;;;;;8410839;27;20902;-75
2021/09/18 11:53:18;;;;;;;5.32;2.47;;;;;;;;;;8413517;27;21109;-75
2021/09/18 11:57:34;;;;;;;3.25;1.60;;;;;;;;;;8398912;27;20876;-74
2021/09/18 12:01:49;;;;;;;2.63;1.75;;;;;;;;;;8377901;27;1264143;-75
2021/09/18 12:06:11;;;;;;;5.15;1.90;;;;;;;;;;8417476;27;21101;-75
2021/09/18 12:10:26;;;;;;;7.03;3.05;;;;;;;;;;8419873;27;20821;-74
2021/09/18 12:14:40;;;;;;;2.90;1.80;;;;;;;;;;8376963;27;1259194;-75
2021/09/18 12:19:10;;;;;;;4.22;2.20;;;;;;;;;;8414386;27;20876;-74
2021/09/18 12:23:24;;;;;;;3.20;1.83;;;;;;;;;;8374304;27;1262610;-75
2021/09/18 12:27:41;;;;;;;4.55;1.95;;;;;;;;;;8418826;27;20906;-75
2021/09/18 12:32:04;;;;;;;2.75;1.70;;;;;;;;;;8415668;27;20914;-72
2021/09/18 12:36:24;;;;;;;5.07;2.45;;;;;;;;;;8374834;27;20915;-74
2021/09/18 12:40:46;;;;;;;6.03;3.50;;;;;;;;;;8392596;27;20862;-75
2021/09/18 12:45:02;;;;;;;7.90;3.25;;;;;;;;;;8385886;27;21111;-74
2021/09/18 12:49:18;;;;;;;7.70;3.00;;;;;;;;;;8372790;27;1256081;-74
2021/09/18 12:54:01;;;;;;;4.65;2.65;;;;;;;;;;8418289;27;20833;-74
2021/09/18 12:58:29;;;;;;;7.40;3.55;;;;;;;;;;8403449;27;21067;-74
2021/09/18 13:02:44;;;;;;;6.97;3.28;;;;;;;;;;8333278;27;20854;-75
2021/09/18 13:07:12;;;;;;;8.98;2.85;;;;;;;;;;8410600;27;21009;-73
2021/09/18 13:11:29;;;;;;;3.43;1.70;;;;;;;;;;8348440;27;1259344;-73
2021/09/18 13:15:46;;;;;;;2.03;1.35;;;;;;;;;;8419451;27;20909;-75
2021/09/18 13:20:06;;;;;;;2.73;1.50;;;;;;;;;;8368244;27;1241871;-74
2021/09/18 13:24:22;;;;;;;4.40;1.40;;;;;;;;;;8385677;27;20567;-76
2021/09/18 13:28:48;;;;;;;3.90;1.80;;;;;;;;;;8362636;27;1261281;-74
2021/09/18 13:33:01;;;;;;;3.42;1.73;;;;;;;;;;8361616;27;1262161;-73
2021/09/18 13:37:17;;;;;;;3.17;1.77;;;;;;;;;;8408251;27;20826;-75
2021/09/18 13:44:55;;;;;;;2.28;1.02;;;;;;;;;;8212967;27;21071;-76
2021/09/18 13:49:11;;;;;;;2.75;1.58;;;;;;;;;;8351110;27;1253787;-75
2021/09/18 13:53:27;;;;;;;7.07;2.40;;;;;;;;;;8390630;27;20876;-75
2021/09/18 13:57:42;;;;;;;5.18;3.10;;;;;;;;;;8410273;27;20628;-74
2021/09/18 14:01:56;;;;;;;4.67;2.00;;;;;;;;;;8361529;27;1243331;-74
2021/09/18 14:06:12;;;;;;;2.35;1.38;;;;;;;;;;8383828;27;20554;-74
2021/09/18 14:10:26;;;;;;;3.15;1.40;;;;;;;;;;8376865;27;1239963;-74
2021/09/18 14:14:41;;;;;;;3.25;1.70;;;;;;;;;;8399428;27;21072;-75
2021/09/18 14:18:57;;;;;;;3.95;2.55;;;;;;;;;;8419730;27;20649;-74
2021/09/18 14:23:14;;;;;;;5.38;3.40;;;;;;;;;;8401041;27;21118;-74
2021/09/18 14:27:30;;;;;;;5.82;2.60;;;;;;;;;;8385334;27;21105;-74
2021/09/18 14:32:28;;;;;;;4.50;1.85;;;;;;;;;;8403155;27;20618;-76
2021/09/18 14:36:43;;;;;;;7.30;2.28;;;;;;;;;;8405021;27;20622;-76
2021/09/18 14:40:56;;;;;;;4.60;3.40;;;;;;;;;;8361305;27;1255605;-74
2021/09/18 14:45:11;;;;;;;8.25;5.55;;;;;;;;;;8387044;27;20904;-75
2021/09/18 14:49:26;;;;;;;10.85;4.00;;;;;;;;;;8414784;27;20906;-75
2021/09/18 14:53:42;;;;;;;6.90;4.80;;;;;;;;;;8391879;27;20876;-73
2021/09/18 14:57:58;;;;;;;7.13;3.40;;;;;;;;;;8415472;27;21051;-75
2021/09/18 15:02:18;;;;;;;5.38;3.13;;;;;;;;;;8400367;27;20889;-74
2021/09/18 15:06:36;;;;;;;5.85;3.30;;;;;;;;;;8415656;27;20937;-75
2021/09/18 15:10:50;;;;;;;7.03;3.38;;;;;;;;;;8370488;27;1251972;-75
2021/09/18 15:15:06;;;;;;;5.05;3.17;;;;;;;;;;8408061;27;21135;-74
2021/09/18 15:19:22;;;;;;;5.10;2.67;;;;;;;;;;8416691;27;21055;-74
2021/09/18 15:23:35;;;;;;;4.47;2.35;;;;;;;;;;8378009;27;1254454;-74
2021/09/18 15:27:51;;;;;;;8.13;3.10;;;;;;;;;;8246550;27;21131;-75
2021/09/18 15:32:07;;;;;;;4.82;3.05;;;;;;;;;;8326386;27;20931;-73
2021/09/18 15:36:23;;;;;;;5.60;3.10;;;;;;;;;;8421244;27;20558;-74
2021/09/18 15:40:43;;;;;;;5.18;2.78;;;;;;;;;;8418403;27;20844;-76
2021/09/18 15:44:58;;;;;;;5.85;2.08;;;;;;;;;;8417152;27;20918;-75
2021/09/18 15:49:12;;;;;;;5.55;2.40;;;;;;;;;;8418597;27;21108;-75
2021/09/18 15:53:28;;;;;;;14.07;7.32;;;;;;;;;;8419672;27;21044;-75
2021/09/18 15:57:44;;;;;;;11.90;7.15;;;;;;;;;;8419082;27;20553;-75
2021/09/18 16:01:59;;;;;;;8.88;3.28;;;;;;;;;;8418328;27;21059;-77
2021/09/18 16:06:15;;;;;;;4.50;2.25;;;;;;;;;;8374110;27;1247829;-76
2021/09/18 16:10:31;;;;;;;5.03;2.22;;;;;;;;;;8416175;27;20842;-77
2021/09/18 16:14:47;;;;;;;5.65;3.10;;;;;;;;;;8418593;27;20880;-77
2021/09/18 16:19:04;;;;;;;10.15;3.47;;;;;;;;;;8421016;27;20549;-77
2021/09/18 16:23:20;;;;;;;4.03;2.63;;;;;;;;;;8403276;27;20909;-78
2021/09/18 18:01:20;;;;;;;5.97;3.13;;;;;;;;;;8272693;27;1936110;-77
2021/09/18 18:05:36;;;;;;;4.95;2.83;;;;;;;;;;8410927;27;20914;-77
2021/09/18 18:09:52;;;;;;;5.85;3.00;;;;;;;;;;8403480;27;21039;-77
2021/09/18 18:14:08;;;;;;;5.05;2.50;;;;;;;;;;8404967;27;20945;-76
2021/09/18 18:18:24;;;;;;;5.22;2.47;;;;;;;;;;8353477;27;1260448;-76
2021/09/18 18:22:38;;;;;;;8.27;4.70;;;;;;;;;;8394269;27;20546;-77
2021/09/18 18:26:54;;;;;;;5.60;2.90;;;;;;;;;;8404661;27;20854;-77
2021/09/18 18:31:10;;;;;;;4.00;2.55;;;;;;;;;;8406165;27;20557;-77
2021/09/18 18:35:31;;;;;;;2.08;1.20;;;;;;;;;;8400844;27;21032;-78
2021/09/18 18:39:36;;;;;;;1.60;1.27;;;;;;;;;;8370652;28;20489;-77
2021/09/18 18:43:41;;;;;;;1.88;1.50;;;;;;;;;;8375571;28;20027;-78
2021/09/18 18:47:45;;;;;;;2.22;1.10;;;;;;;;;;8365278;28;20380;-77
2021/09/18 18:51:49;;;;;;;2.33;1.40;;;;;;;;;;8365702;28;20397;-77
2021/09/18 18:55:53;;;;;;;1.33;1.20;;;;;;;;;;8380345;28;20392;-76
2021/09/18 18:59:58;;;;;;;1.83;1.30;;;;;;;;;;8384592;27;20490;-78
2021/09/18 19:04:03;;;;;;;2.35;1.40;;;;;;;;;;8385698;28;20078;-77
2021/09/18 19:08:09;;;;;;;4.68;2.65;;;;;;;;;;8384831;28;20480;-77
2021/09/18 19:12:13;;;;;;;4.00;2.28;;;;;;;;;;8380204;28;20473;-77
2021/09/18 19:16:16;;;;;;;2.67;1.50;;;;;;;;;;8366452;28;20032;-78
2021/09/18 19:20:21;;;;;;;4.15;2.58;;;;;;;;;;8367055;28;20596;-77
2021/09/18 19:24:26;;;;;;;4.93;3.22;;;;;;;;;;8365293;28;20373;-78
2021/09/18 19:28:30;;;;;;;5.00;3.03;;;;;;;;;;8373956;28;20036;-78
2021/09/18 19:32:37;;;;;;;13.25;5.53;;;;;;;;;;8358670;27;20425;-79
2021/09/18 19:36:43;;;;;;;5.10;2.13;;;;;;;;;;8361295;28;20470;-78
2021/09/18 19:40:51;;;;;;;8.77;2.63;;;;;;;;;;8359405;28;20059;-77
2021/09/18 19:44:54;;;;;;;4.55;2.00;;;;;;;;;;8355383;28;20039;-77
2021/09/18 19:48:58;;;;;;;2.50;2.00;;;;;;;;;;8340284;28;20475;-77
2021/09/18 19:53:03;;;;;;;2.17;1.73;;;;;;;;;;8341206;28;20044;-77
2021/09/18 19:57:07;;;;;;;5.07;2.35;;;;;;;;;;8342681;28;20455;-78
2021/09/18 20:01:12;;;;;;;3.28;2.08;;;;;;;;;;8329270;28;20409;-77
2021/09/18 20:05:17;;;;;;;4.15;2.80;;;;;;;;;;8328567;28;20363;-77
2021/09/18 20:09:21;;;;;;;6.95;4.43;;;;;;;;;;8328921;28;20497;-78
2021/09/18 20:13:26;;;;;;;3.72;3.00;;;;;;;;;;8329780;28;20347;-78
2021/09/18 20:17:30;;;;;;;6.07;2.50;;;;;;;;;;8323867;28;20478;-78
2021/09/18 20:21:34;;;;;;;5.03;3.30;;;;;;;;;;8327660;28;20483;-77
2021/09/18 20:25:38;;;;;;;5.50;3.05;;;;;;;;;;8341679;28;20352;-77
2021/09/18 20:29:42;;;;;;;3.83;2.90;;;;;;;;;;8334752;28;20343;-78
2021/09/18 20:33:46;;;;;;;6.13;3.22;;;;;;;;;;8338749;28;20335;-78
2021/09/18 20:37:49;;;;;;;4.28;3.05;;;;;;;;;;8337003;28;20078;-78
2021/09/18 20:41:54;;;;;;;4.25;3.33;;;;;;;;;;8341501;28;20478;-78
2021/09/18 20:45:59;;;;;;;12.00;7.30;;;;;;;;;;8339055;28;20370;-78
2021/09/18 20:50:04;;;;;;;4.95;3.72;;;;;;;;;;8324947;28;20670;-78
2021/09/18 20:54:10;;;;;;;4.90;3.60;;;;;;;;;;8324927;28;20078;-78
2021/09/18 20:58:16;;;;;;;3.78;3.00;;;;;;;;;;8325137;28;20509;-78
2021/09/18 21:06:44;;;;;;;5.05;3.13;;;;;;;;;;8338350;28;20032;-78
2021/09/18 21:10:49;;;;;;;5.78;3.75;;;;;;;;;;8328079;28;20467;-78
2021/09/18 21:14:54;;;;;;;6.00;3.67;;;;;;;;;;8330537;28;20059;-77
2021/09/18 21:18:58;;;;;;;6.57;4.43;;;;;;;;;;8342209;27;20475;-77
2021/09/18 21:23:02;;;;;;;9.93;4.78;;;;;;;;;;8341870;28;20497;-76
2021/09/18 21:27:06;;;;;;;5.68;3.65;;;;;;;;;;8355209;28;20046;-77
2021/09/18 21:31:10;;;;;;;5.20;3.92;;;;;;;;;;8342405;28;20386;-76
2021/09/18 21:35:15;;;;;;;4.57;3.00;;;;;;;;;;8309765;28;20048;-77
2021/09/18 21:39:20;;;;;;;3.50;2.58;;;;;;;;;;8308280;28;20048;-77
2021/09/18 21:43:26;;;;;;;4.20;3.40;;;;;;;;;;8281237;28;20347;-77
2021/09/18 21:47:31;;;;;;;4.85;3.35;;;;;;;;;;8294906;28;20352;-77
2021/09/18 21:51:36;;;;;;;4.28;3.03;;;;;;;;;;8299025;28;20505;-77
2021/09/18 21:55:40;;;;;;;4.10;2.92;;;;;;;;;;8309126;28;20079;-78
2021/09/18 21:59:45;;;;;;;4.45;2.67;;;;;;;;;;8306187;28;20491;-77
2021/09/18 22:03:53;;;;;;;3.35;2.53;;;;;;;;;;8318290;28;20053;-77
2021/09/18 22:07:58;;;;;;;4.13;2.60;;;;;;;;;;8312420;28;20537;-78
2021/09/18 22:12:04;;;;;;;4.93;2.60;;;;;;;;;;8326776;28;20375;-77
2021/09/18 22:16:09;;;;;;;3.63;2.38;;;;;;;;;;8316903;28;20052;-77
2021/09/18 22:20:15;;;;;;;3.40;2.10;;;;;;;;;;8307066;28;20102;-77
2021/09/18 22:24:20;;;;;;;3.92;2.30;;;;;;;;;;8313634;28;20054;-77
2021/09/18 22:28:25;;;;;;;5.05;2.78;;;;;;;;;;8259814;28;20351;-78
2021/09/18 22:32:33;;;;;;;4.00;2.47;;;;;;;;;;8256916;28;20478;-79
2021/09/18 22:36:37;;;;;;;4.53;2.75;;;;;;;;;;8261968;28;20447;-78
2021/09/18 22:40:41;;;;;;;5.07;3.22;;;;;;;;;;8271684;28;20041;-78
2021/09/18 22:44:45;;;;;;;5.35;3.45;;;;;;;;;;8256256;28;20041;-77
2021/09/18 22:48:49;;;;;;;5.47;3.60;;;;;;;;;;8262399;28;20491;-77
2021/09/18 22:52:54;;;;;;;5.18;3.60;;;;;;;;;;8262511;28;20361;-79
2021/09/18 22:57:00;;;;;;;5.30;3.30;;;;;;;;;;8260631;28;20372;-78
2021/09/18 23:01:07;;;;;;;4.93;3.13;;;;;;;;;;8260298;28;20392;-77
2021/09/18 23:05:13;;;;;;;5.13;3.28;;;;;;;;;;8262496;28;20345;-77
2021/09/18 23:09:17;;;;;;;8.02;2.75;;;;;;;;;;8258491;28;20366;-78
2021/09/18 23:13:23;;;;;;;4.25;2.80;;;;;;;;;;8259419;28;20464;-77
2021/09/18 23:17:29;;;;;;;5.60;2.47;;;;;;;;;;8258151;28;20067;-78
2021/09/18 23:21:35;;;;;;;4.05;3.30;;;;;;;;;;8263199;28;20383;-78
2021/09/18 23:25:42;;;;;;;6.30;4.30;;;;;;;;;;8263968;28;20360;-78
2021/09/18 23:29:48;;;;;;;9.10;5.33;;;;;;;;;;8262645;28;20498;-77
2021/09/18 23:33:53;;;;;;;8.55;4.50;;;;;;;;;;8261352;28;20502;-78
2021/09/18 23:37:58;;;;;;;5.20;3.88;;;;;;;;;;8259960;28;20488;-78
2021/09/18 23:42:03;;;;;;;7.78;4.47;;;;;;;;;;8262079;28;20371;-78
2021/09/18 23:46:08;;;;;;;8.05;3.85;;;;;;;;;;8261393;28;20056;-79
2021/09/18 23:50:14;;;;;;;7.47;3.55;;;;;;;;;;8262752;28;20037;-79
2021/09/18 23:54:18;;;;;;;5.55;3.90;;;;;;;;;;8259291;28;20059;-77
2021/09/18 23:58:23;;;;;;;8.88;3.97;;;;;;;;;;8260682;28;20495;-77
